createdAt,value
2022-08-16T00:01:35.681Z,21.30
2022-08-16T00:04:10.268Z,23.60
2022-08-16T00:06:39.731Z,23.53
2022-08-16T00:09:11.137Z,21.60
2022-08-16T00:11:46.136Z,21.13
2022-08-16T00:14:19.669Z,20.10
2022-08-16T00:17:00.988Z,21.07
2022-08-16T00:19:41.004Z,24.80
2022-08-16T00:22:12.814Z,27.20
2022-08-16T00:24:46.678Z,19.70
2022-08-16T00:27:17.568Z,21.53
2022-08-16T00:29:46.550Z,21.53
2022-08-16T00:32:18.231Z,27.53
2022-08-16T00:34:53.096Z,26.20
2022-08-16T00:37:57.374Z,23.20
2022-08-16T00:40:34.995Z,20.40
2022-08-16T00:43:11.785Z,19.20
2022-08-16T00:46:00.606Z,26.27
2022-08-16T00:48:32.184Z,23.27
2022-08-16T00:51:16.186Z,22.70
2022-08-16T00:53:47.509Z,21.90
2022-08-16T00:56:57.518Z,17.63
2022-08-16T00:59:16.746Z,16.33
2022-08-16T01:01:47.162Z,16.93
2022-08-16T01:04:30.318Z,19.57
2022-08-16T01:07:02.989Z,18.63
2022-08-16T01:09:34.200Z,18.00
2022-08-16T01:12:10.802Z,20.50
2022-08-16T01:14:53.235Z,18.07
2022-08-16T01:17:24.449Z,16.20
2022-08-16T01:19:59.897Z,20.60
2022-08-16T01:22:59.099Z,17.00
2022-08-16T01:25:36.380Z,16.37
2022-08-16T01:28:19.679Z,17.97
2022-08-16T01:30:56.881Z,16.47
2022-08-16T01:33:33.460Z,17.53
2022-08-16T01:36:11.624Z,18.63
2022-08-16T01:38:49.279Z,19.20
2022-08-16T01:41:31.957Z,20.83
2022-08-16T01:44:04.657Z,18.07
2022-08-16T01:46:40.712Z,18.23
2022-08-16T01:49:18.824Z,18.53
2022-08-16T01:51:53.190Z,16.87
2022-08-16T01:54:31.215Z,16.87
2022-08-16T01:57:05.036Z,16.13
2022-08-16T01:59:35.491Z,18.80
2022-08-16T02:02:26.911Z,21.07
2022-08-16T02:04:55.935Z,22.73
2022-08-16T02:07:28.063Z,18.37
2022-08-16T02:10:01.965Z,17.93
2022-08-16T02:12:51.373Z,18.93
2022-08-16T02:15:28.959Z,19.83
2022-08-16T02:18:01.666Z,17.80
2022-08-16T02:20:35.753Z,20.57
2022-08-16T02:23:10.175Z,17.80
2022-08-16T02:25:50.606Z,17.07
2022-08-16T02:28:26.326Z,19.90
2022-08-16T02:30:59.608Z,22.67
2022-08-16T02:33:44.393Z,17.07
2022-08-16T02:36:47.177Z,19.77
2022-08-16T02:39:22.929Z,17.80
2022-08-16T02:41:54.379Z,19.83
2022-08-16T02:44:28.430Z,19.00
2022-08-16T02:46:58.559Z,20.70
2022-08-16T02:49:58.253Z,20.37
2022-08-16T02:52:29.138Z,19.87
2022-08-16T02:55:05.743Z,17.93
2022-08-16T02:57:34.761Z,18.33
2022-08-16T03:00:32.026Z,21.27
2022-08-16T03:03:00.163Z,20.77
2022-08-16T03:05:31.052Z,20.00
2022-08-16T03:08:02.745Z,18.93
2022-08-16T03:10:39.161Z,23.13
2022-08-16T03:13:12.137Z,24.40
2022-08-16T03:15:45.078Z,22.30
2022-08-16T03:18:34.421Z,22.53
2022-08-16T03:21:10.111Z,23.57
2022-08-16T03:23:39.281Z,24.17
2022-08-16T03:26:10.151Z,21.40
2022-08-16T03:28:39.731Z,24.20
2022-08-16T03:31:10.952Z,25.37
2022-08-16T03:33:44.208Z,24.47
2022-08-16T03:36:30.153Z,23.83
2022-08-16T03:39:04.638Z,21.93
2022-08-16T03:41:50.662Z,23.40
2022-08-16T03:44:43.332Z,20.40
2022-08-16T03:47:19.298Z,21.57
2022-08-16T03:49:52.358Z,23.53
2022-08-16T03:52:23.934Z,22.03
2022-08-16T03:55:01.759Z,21.53
2022-08-16T03:57:36.274Z,20.30
2022-08-16T04:00:35.755Z,24.03
2022-08-16T04:03:10.159Z,22.10
2022-08-16T04:05:48.650Z,21.37
2022-08-16T04:08:23.240Z,26.13
2022-08-16T04:10:59.479Z,19.53
2022-08-16T04:14:01.562Z,23.10
2022-08-16T04:16:27.436Z,22.30
2022-08-16T04:19:04.703Z,21.17
2022-08-16T04:21:46.181Z,22.37
2022-08-16T04:24:22.128Z,22.17
2022-08-16T04:26:58.507Z,24.70
2022-08-16T04:29:44.086Z,26.70
2022-08-16T04:32:15.980Z,24.80
2022-08-16T04:34:53.052Z,24.03
2022-08-16T04:37:22.429Z,24.30
2022-08-16T04:39:57.673Z,21.27
2022-08-16T04:42:29.796Z,21.07
2022-08-16T04:45:05.690Z,20.83
2022-08-16T04:47:36.703Z,18.60
2022-08-16T04:50:18.350Z,19.20
2022-08-16T04:53:00.929Z,21.47
2022-08-16T04:55:38.314Z,23.20
2022-08-16T04:58:44.562Z,21.57
2022-08-16T05:01:00.868Z,20.60
2022-08-16T05:03:31.974Z,20.67
2022-08-16T05:06:05.183Z,17.80
2022-08-16T05:08:36.898Z,21.00
2022-08-16T05:11:22.632Z,18.20
2022-08-16T05:13:52.615Z,18.40
2022-08-16T05:16:27.204Z,17.13
2022-08-16T05:19:11.429Z,15.47
2022-08-16T05:21:47.373Z,18.53
2022-08-16T05:24:16.275Z,16.83
2022-08-16T05:26:53.774Z,15.23
2022-08-16T05:29:24.938Z,16.97
2022-08-16T05:32:32.900Z,15.80
2022-08-16T05:35:11.037Z,19.67
2022-08-16T05:37:47.970Z,16.03
2022-08-16T05:40:18.762Z,20.67
2022-08-16T05:42:51.243Z,24.40
2022-08-16T05:45:23.266Z,17.83
2022-08-16T05:47:59.589Z,18.57
2022-08-16T05:50:38.174Z,17.23
2022-08-16T05:53:12.506Z,17.83
2022-08-16T05:55:58.364Z,18.20
2022-08-16T05:58:31.979Z,18.17
2022-08-16T06:01:02.783Z,16.77
2022-08-16T06:03:34.382Z,17.03
2022-08-16T06:06:08.503Z,16.63
2022-08-16T06:08:42.167Z,17.23
2022-08-16T06:11:14.058Z,16.47
2022-08-16T06:13:50.280Z,22.17
2022-08-16T06:16:27.958Z,18.93
2022-08-16T06:19:00.538Z,17.53
2022-08-16T06:21:36.665Z,24.80
2022-08-16T06:24:53.781Z,18.37
2022-08-16T06:26:58.407Z,23.93
2022-08-16T06:29:32.670Z,23.57
2022-08-16T06:32:02.418Z,22.53
2022-08-16T06:34:55.890Z,16.73
2022-08-16T06:37:22.294Z,18.50
2022-08-16T06:39:53.244Z,19.90
2022-08-16T06:42:39.620Z,17.13
2022-08-16T06:45:38.120Z,17.03
2022-08-16T06:48:33.211Z,20.57
2022-08-16T06:51:05.911Z,18.90
2022-08-16T06:53:36.926Z,16.03
2022-08-16T06:56:14.784Z,16.07
2022-08-16T06:58:59.839Z,16.60
2022-08-16T07:01:44.488Z,24.17
2022-08-16T07:04:31.796Z,16.50
2022-08-16T07:07:09.869Z,15.07
2022-08-16T07:09:41.155Z,14.10
2022-08-16T07:12:12.346Z,16.50
2022-08-16T07:14:47.998Z,15.43
2022-08-16T07:17:21.702Z,16.17
2022-08-16T07:20:30.756Z,16.03
2022-08-16T07:22:59.315Z,13.60
2022-08-16T07:25:34.087Z,14.03
2022-08-16T07:28:20.563Z,16.43
2022-08-16T07:30:50.727Z,17.47
2022-08-16T07:33:51.487Z,20.73
2022-08-16T07:36:22.152Z,15.80
2022-08-16T07:38:52.787Z,14.03
2022-08-16T07:41:22.861Z,13.20
2022-08-16T07:44:01.118Z,16.63
2022-08-16T07:46:37.897Z,14.40
2022-08-16T07:49:23.829Z,15.77
2022-08-16T07:51:55.891Z,16.13
2022-08-16T07:54:31.944Z,13.80
2022-08-16T07:57:05.079Z,13.97
2022-08-16T07:59:45.775Z,17.90
2022-08-16T08:02:20.281Z,15.70
2022-08-16T08:04:56.283Z,18.57
2022-08-16T08:07:29.385Z,14.90
2022-08-16T08:10:03.867Z,15.37
2022-08-16T08:12:35.855Z,15.47
2022-08-16T08:15:11.313Z,15.93
2022-08-16T08:17:44.068Z,17.10
2022-08-16T08:20:28.428Z,14.07
2022-08-16T08:23:03.024Z,13.47
2022-08-16T08:25:54.537Z,14.97
2022-08-16T08:28:26.497Z,15.13
2022-08-16T08:31:04.253Z,13.73
2022-08-16T08:33:39.961Z,15.43
2022-08-16T08:36:22.045Z,14.43
2022-08-16T08:38:54.210Z,12.97
2022-08-16T08:41:28.963Z,15.77
2022-08-16T08:44:01.104Z,16.27
2022-08-16T08:47:00.361Z,14.00
2022-08-16T08:49:50.206Z,12.03
2022-08-16T08:52:34.685Z,13.63
2022-08-16T08:55:14.884Z,12.20
2022-08-16T08:57:47.898Z,13.57
2022-08-16T09:00:21.618Z,12.77
2022-08-16T09:02:59.464Z,13.00
2022-08-16T09:05:35.777Z,11.63
2022-08-16T09:08:09.128Z,15.03
2022-08-16T09:10:58.814Z,17.00
2022-08-16T09:13:34.284Z,14.10
2022-08-16T09:16:05.033Z,14.03
2022-08-16T09:18:36.668Z,12.57
2022-08-16T09:21:09.510Z,12.47
2022-08-16T09:23:40.832Z,12.50
2022-08-16T09:26:44.844Z,13.47
2022-08-16T09:29:14.358Z,12.93
2022-08-16T09:31:47.858Z,11.77
2022-08-16T09:34:24.285Z,11.90
2022-08-16T09:36:56.166Z,11.63
2022-08-16T09:39:26.926Z,11.93
2022-08-16T09:42:11.912Z,12.37
2022-08-16T09:45:10.748Z,11.23
2022-08-16T09:47:56.255Z,11.47
2022-08-16T09:50:25.373Z,10.43
2022-08-16T09:52:54.480Z,10.43
2022-08-16T09:55:25.363Z,10.63
2022-08-16T09:57:54.350Z,10.47
2022-08-16T10:00:43.918Z,10.30
2022-08-16T10:03:13.362Z,12.37
2022-08-16T10:05:43.811Z,11.43
2022-08-16T10:08:25.873Z,11.83
2022-08-16T10:11:25.091Z,10.30
2022-08-16T10:13:53.960Z,10.53
2022-08-16T10:16:23.952Z,10.97
2022-08-16T10:19:06.367Z,9.27
2022-08-16T10:21:37.464Z,12.47
2022-08-16T10:24:07.792Z,12.83
2022-08-16T10:27:20.420Z,10.90
2022-08-16T10:29:59.261Z,12.83
2022-08-16T10:32:20.829Z,11.10
2022-08-16T10:34:52.351Z,16.07
2022-08-16T10:37:32.171Z,10.63
2022-08-16T10:40:28.733Z,10.43
2022-08-16T10:42:59.167Z,9.90
2022-08-16T10:45:36.541Z,13.07
2022-08-16T10:48:27.045Z,10.50
2022-08-16T10:50:59.123Z,10.27
2022-08-16T10:53:33.191Z,12.30
2022-08-16T10:56:06.428Z,11.47
2022-08-16T10:58:53.230Z,9.83
2022-08-16T11:01:39.783Z,10.63
2022-08-16T11:07:08.345Z,9.10
2022-08-16T11:09:43.148Z,10.07
2022-08-16T11:12:14.821Z,11.20
2022-08-16T11:17:33.071Z,7.47
2022-08-16T11:20:41.412Z,8.40
2022-08-16T11:22:53.791Z,9.37
2022-08-16T11:28:36.519Z,9.60
2022-08-16T11:31:06.441Z,9.90
2022-08-16T11:33:52.502Z,9.53
2022-08-16T11:36:22.306Z,9.60
2022-08-16T11:38:57.769Z,10.77
2022-08-16T11:41:30.827Z,9.00
2022-08-16T11:44:01.729Z,10.03
2022-08-16T11:46:45.100Z,9.17
2022-08-16T11:49:16.120Z,10.70
2022-08-16T11:51:45.699Z,10.80
2022-08-16T11:54:21.141Z,10.67
2022-08-16T11:56:57.170Z,10.97
2022-08-16T11:59:29.501Z,12.27
2022-08-16T12:02:11.597Z,11.10
2022-08-16T12:04:51.671Z,9.13
2022-08-16T12:07:23.592Z,9.90
2022-08-16T12:09:53.510Z,9.93
2022-08-16T12:12:24.698Z,10.90
2022-08-16T12:15:00.107Z,9.80
2022-08-16T12:17:31.534Z,9.87
2022-08-16T12:20:01.640Z,10.07
2022-08-16T12:22:31.430Z,10.43
2022-08-16T12:25:06.310Z,12.00
2022-08-16T12:27:39.330Z,11.83
2022-08-16T12:30:21.364Z,9.80
2022-08-16T12:32:57.790Z,11.10
2022-08-16T12:35:30.226Z,11.97
2022-08-16T12:38:37.931Z,10.57
2022-08-16T12:40:55.620Z,10.03
2022-08-16T12:43:31.050Z,10.13
2022-08-16T12:46:01.897Z,9.60
2022-08-16T12:48:52.645Z,8.80
2022-08-16T12:51:33.092Z,10.37
2022-08-16T12:54:15.954Z,10.87
2022-08-16T12:56:45.013Z,9.90
2022-08-16T12:59:20.106Z,9.07
2022-08-16T13:01:50.441Z,8.13
2022-08-16T13:04:24.657Z,12.63
2022-08-16T13:06:55.010Z,8.67
2022-08-16T13:09:29.949Z,8.83
2022-08-16T13:12:04.334Z,8.63
2022-08-16T13:14:42.645Z,8.97
2022-08-16T13:17:18.736Z,8.83
2022-08-16T13:20:09.502Z,10.40
2022-08-16T13:22:44.187Z,10.37
2022-08-16T13:25:21.176Z,9.50
2022-08-16T13:28:02.604Z,8.37
2022-08-16T13:30:41.276Z,8.40
2022-08-16T13:33:16.500Z,8.10
2022-08-16T13:35:55.498Z,8.00
2022-08-16T13:38:36.429Z,7.63
2022-08-16T13:41:09.990Z,8.63
2022-08-16T13:43:40.685Z,7.67
2022-08-16T13:46:11.097Z,7.10
2022-08-16T13:48:44.238Z,8.83
2022-08-16T13:51:18.464Z,6.10
2022-08-16T13:53:49.583Z,7.17
2022-08-16T13:56:25.772Z,7.13
2022-08-16T13:58:55.642Z,8.90
2022-08-16T14:01:26.818Z,6.97
2022-08-16T14:03:57.706Z,7.50
2022-08-16T14:06:27.355Z,6.30
2022-08-16T14:08:59.032Z,8.73
2022-08-16T14:11:36.509Z,6.90
2022-08-16T14:14:06.210Z,8.57
2022-08-16T14:16:37.189Z,7.23
2022-08-16T14:19:08.216Z,6.53
2022-08-16T14:21:37.868Z,7.40
2022-08-16T14:24:22.430Z,5.93
2022-08-16T14:26:59.264Z,6.87
2022-08-16T14:29:28.591Z,7.17
2022-08-16T14:32:07.571Z,7.20
2022-08-16T14:34:38.132Z,8.80
2022-08-16T14:37:09.201Z,9.70
2022-08-16T14:39:39.460Z,7.57
2022-08-16T14:42:11.580Z,7.80
2022-08-16T14:44:43.351Z,6.53
2022-08-16T14:47:13.936Z,9.53
2022-08-16T14:49:43.192Z,11.83
2022-08-16T14:52:20.481Z,5.80
2022-08-16T14:55:06.816Z,7.53
2022-08-16T14:57:35.749Z,7.77
2022-08-16T15:00:06.739Z,6.13
2022-08-16T15:02:38.032Z,5.90
2022-08-16T15:05:13.241Z,6.13
2022-08-16T15:07:43.478Z,6.73
2022-08-16T15:10:24.015Z,7.93
2022-08-16T15:12:56.161Z,5.50
2022-08-16T15:15:28.838Z,6.40
2022-08-16T15:18:01.771Z,6.80
2022-08-16T15:20:35.324Z,7.30
2022-08-16T15:23:07.437Z,9.53
2022-08-16T15:25:41.483Z,6.00
2022-08-16T15:28:31.214Z,6.10
2022-08-16T15:31:03.148Z,6.43
2022-08-16T15:33:39.293Z,6.17
2022-08-16T15:36:18.189Z,5.90
2022-08-16T15:39:03.939Z,6.10
2022-08-16T15:42:05.586Z,5.33
2022-08-16T15:44:50.839Z,7.13
2022-08-16T15:47:21.753Z,5.43
2022-08-16T15:49:57.998Z,5.43
2022-08-16T15:52:31.177Z,6.90
2022-08-16T15:55:13.023Z,8.57
2022-08-16T15:57:53.151Z,11.57
2022-08-16T16:00:22.449Z,6.97
2022-08-16T16:03:03.456Z,6.00
2022-08-16T16:05:33.788Z,5.53
2022-08-16T16:08:11.067Z,6.80
2022-08-16T16:10:43.412Z,18.53
2022-08-16T16:13:15.556Z,18.23
2022-08-16T16:15:47.434Z,13.10
2022-08-16T16:18:18.130Z,10.83
2022-08-16T16:20:52.285Z,7.23
2022-08-16T16:23:26.522Z,7.67
2022-08-16T16:26:00.015Z,7.17
2022-08-16T16:29:05.541Z,7.60
2022-08-16T16:31:26.430Z,54.80
2022-08-16T16:33:58.876Z,7.80
2022-08-16T16:36:33.503Z,7.07
2022-08-16T16:39:06.069Z,7.40
2022-08-16T16:41:38.017Z,6.07
2022-08-16T16:44:07.062Z,7.37
2022-08-16T16:46:42.555Z,7.47
2022-08-16T16:49:15.190Z,10.37
2022-08-16T16:51:50.176Z,8.43
2022-08-16T16:54:27.793Z,6.53
2022-08-16T16:56:58.787Z,10.40
2022-08-16T16:59:28.111Z,5.87
2022-08-16T17:02:41.523Z,5.90
2022-08-16T17:04:48.653Z,8.33
2022-08-16T17:07:20.718Z,6.93
2022-08-16T17:09:53.767Z,6.60
2022-08-16T17:12:46.543Z,5.80
2022-08-16T17:15:13.247Z,6.80
2022-08-16T17:17:59.442Z,7.70
2022-08-16T17:20:30.617Z,6.60
2022-08-16T17:23:01.059Z,6.00
2022-08-16T17:25:36.471Z,5.67
2022-08-16T17:29:00.056Z,6.83
2022-08-16T17:30:56.355Z,8.43
2022-08-16T17:33:28.601Z,7.17
2022-08-16T17:36:08.710Z,9.57
2022-08-16T17:38:44.653Z,6.40
2022-08-16T17:41:16.332Z,5.87
2022-08-16T17:43:46.567Z,7.93
2022-08-16T17:46:50.149Z,6.17
2022-08-16T17:49:07.064Z,6.17
2022-08-16T17:51:35.890Z,6.43
2022-08-16T17:54:06.848Z,7.67
2022-08-16T17:56:35.690Z,7.07
2022-08-16T17:59:04.668Z,5.47
2022-08-16T18:01:33.594Z,7.43
2022-08-16T18:04:09.399Z,9.70
2022-08-16T18:06:39.616Z,6.20
2022-08-16T18:09:11.299Z,6.07
2022-08-16T18:11:44.597Z,6.33
2022-08-16T18:14:15.966Z,6.87
2022-08-16T18:16:46.357Z,7.40
2022-08-16T18:19:16.570Z,7.63
2022-08-16T18:22:02.711Z,25.83
2022-08-16T18:24:32.958Z,16.70
2022-08-16T18:27:26.405Z,11.73
2022-08-16T18:29:52.305Z,11.30
2022-08-16T18:32:24.384Z,9.67
2022-08-16T18:34:54.715Z,9.47
2022-08-16T18:37:24.015Z,17.80
2022-08-16T18:39:54.407Z,13.50
2022-08-16T18:42:25.592Z,12.20
2022-08-16T18:44:54.613Z,13.60
2022-08-16T18:47:23.314Z,11.87
2022-08-16T18:49:52.134Z,13.50
2022-08-16T18:52:25.223Z,12.60
2022-08-16T18:55:02.016Z,11.60
2022-08-16T18:57:32.067Z,14.10
2022-08-16T19:00:00.964Z,12.00
2022-08-16T19:02:56.199Z,13.07
2022-08-16T19:05:25.871Z,10.00
2022-08-16T19:07:54.748Z,11.73
2022-08-16T19:10:25.185Z,15.10
2022-08-16T19:12:54.145Z,13.63
2022-08-16T19:15:30.062Z,13.63
2022-08-16T19:17:59.455Z,17.87
2022-08-16T19:20:30.711Z,16.03
2022-08-16T19:23:05.157Z,22.57
2022-08-16T19:25:47.417Z,18.00
2022-08-16T19:28:51.294Z,18.30
2022-08-16T19:31:15.656Z,15.40
2022-08-16T19:33:53.240Z,14.17
2022-08-16T19:36:30.433Z,18.53
2022-08-16T19:39:04.637Z,14.60
2022-08-16T19:41:38.271Z,14.30
2022-08-16T19:44:08.487Z,21.80
2022-08-16T19:46:38.252Z,16.10
2022-08-16T19:49:07.591Z,18.37
2022-08-16T19:51:37.670Z,17.73
2022-08-16T19:54:07.016Z,16.87
2022-08-16T19:56:37.228Z,17.30
2022-08-16T19:59:22.369Z,21.10
2022-08-16T20:01:55.005Z,17.70
2022-08-16T20:04:25.997Z,18.03
2022-08-16T20:06:56.401Z,17.30
2022-08-16T20:09:26.390Z,17.50
2022-08-16T20:11:56.843Z,17.90
2022-08-16T20:14:26.733Z,20.00
2022-08-16T20:16:59.083Z,20.97
2022-08-16T20:19:29.742Z,19.10
2022-08-16T20:22:09.640Z,21.23
2022-08-16T20:24:38.680Z,23.00
2022-08-16T20:27:10.690Z,21.13
2022-08-16T20:29:42.373Z,21.87
2022-08-16T20:32:15.769Z,20.00
2022-08-16T20:34:47.344Z,21.83
2022-08-16T20:37:16.851Z,18.43
2022-08-16T20:39:48.483Z,30.40
2022-08-16T20:42:23.425Z,21.07
2022-08-16T20:44:53.993Z,18.93
2022-08-16T20:47:26.558Z,19.73
2022-08-16T20:49:56.074Z,25.03
2022-08-16T20:52:26.770Z,21.10
2022-08-16T20:54:57.997Z,18.60
2022-08-16T20:57:28.392Z,18.87
2022-08-16T20:59:57.297Z,23.50
2022-08-16T21:02:28.924Z,23.73
2022-08-16T21:04:57.912Z,24.50
2022-08-16T21:07:28.873Z,20.20
2022-08-16T21:09:57.830Z,21.87
2022-08-16T21:12:29.172Z,19.20
2022-08-16T21:15:11.484Z,17.60
2022-08-16T21:17:41.660Z,19.73
2022-08-16T21:20:13.000Z,18.83
2022-08-16T21:22:42.715Z,19.20
2022-08-16T21:25:16.713Z,22.40
2022-08-16T21:28:39.193Z,19.77
2022-08-16T21:30:43.118Z,17.43
2022-08-16T21:33:16.295Z,17.80
2022-08-16T21:35:47.975Z,16.40
2022-08-16T21:38:28.833Z,22.10
2022-08-16T21:40:59.425Z,18.13
2022-08-16T21:43:32.367Z,19.20
2022-08-16T21:46:03.290Z,19.10
2022-08-16T21:48:36.137Z,18.80
2022-08-16T21:51:08.072Z,19.70
2022-08-16T21:53:38.044Z,21.10
2022-08-16T21:56:08.534Z,18.10
2022-08-16T21:58:52.482Z,23.43
2022-08-16T22:01:23.986Z,16.27
2022-08-16T22:04:26.706Z,20.23
2022-08-16T22:06:44.633Z,18.03
2022-08-16T22:09:16.669Z,19.57
2022-08-16T22:11:46.010Z,16.40
2022-08-16T22:14:16.228Z,17.83
2022-08-16T22:16:45.120Z,18.90
2022-08-16T22:19:13.912Z,18.30
2022-08-16T22:21:42.879Z,17.97
2022-08-16T22:24:11.958Z,16.67
2022-08-16T22:26:43.497Z,16.00
2022-08-16T22:29:16.162Z,16.23
2022-08-16T22:31:46.038Z,16.87
2022-08-16T22:34:15.400Z,18.93
2022-08-16T22:36:44.452Z,17.20
2022-08-16T22:39:15.409Z,17.80
2022-08-16T22:41:46.023Z,17.03
2022-08-16T22:44:16.704Z,19.80
2022-08-16T22:46:46.239Z,17.23
2022-08-16T22:49:15.169Z,20.20
2022-08-16T22:51:44.029Z,16.40
2022-08-16T22:54:43.797Z,17.90
2022-08-16T22:57:09.659Z,15.80
2022-08-16T22:59:40.189Z,16.20
2022-08-16T23:02:10.067Z,17.10
2022-08-16T23:04:39.433Z,16.47
2022-08-16T23:07:08.232Z,14.27
2022-08-16T23:09:37.069Z,15.50
2022-08-16T23:12:07.400Z,15.30
2022-08-16T23:14:36.420Z,15.80
2022-08-16T23:17:07.582Z,19.10
2022-08-16T23:19:36.578Z,19.70
2022-08-16T23:22:06.036Z,15.50
2022-08-16T23:24:37.233Z,18.40
2022-08-16T23:27:23.744Z,16.67
2022-08-16T23:29:52.719Z,19.10
2022-08-16T23:32:22.933Z,16.00
2022-08-16T23:34:53.074Z,21.70
2022-08-16T23:37:23.265Z,21.00
2022-08-16T23:39:54.591Z,16.20
2022-08-16T23:42:44.701Z,16.50
2022-08-16T23:45:12.599Z,17.87
2022-08-16T23:47:42.881Z,20.53
2022-08-16T23:50:11.789Z,18.40
2022-08-16T23:52:55.790Z,20.10
2022-08-16T23:55:25.324Z,18.20
2022-08-16T23:57:54.752Z,19.27
